Time;durP1;ratioP1;P1;durP2;ratioP2;P2;SDS_P1;SDS_P2;PMS_P1;PMS_P2;Temp;Humidity;BMP_temperature;BMP_pressure;BME280_temperature;BME280_humidity;BME280_pressure;Samples;Min_cycle;Max_cycle;Signal;HPM_P1;HPM_P2
2023/06/17 00:03:49;;;;;;;8.30;7.50;;;;;;;13.44;76.50;98450.29;225477;1278;25251;-72
2023/06/17 00:09:28;;;;;;;8.40;7.60;;;;;;;13.37;76.63;98444.66;226249;1278;22561;-72
2023/06/17 00:14:30;;;;;;;8.10;7.20;;;;;;;13.29;76.86;98437.45;226160;1274;22563;-73
2023/06/17 00:20:25;;;;;;;9.30;8.20;;;;;;;13.22;77.03;98433.52;226180;1278;22535;-72
2023/06/17 00:25:27;;;;;;;9.00;8.00;;;;;;;13.15;77.26;98428.30;226140;1277;22536;-73
2023/06/17 00:30:30;;;;;;;9.80;8.70;;;;;;;13.09;77.48;98433.56;226183;1276;22725;-73
2023/06/17 00:35:35;;;;;;;9.20;8.30;;;;;;;13.03;77.70;98426.80;226103;1278;22553;-73
2023/06/17 00:40:58;;;;;;;10.00;9.10;;;;;;;12.98;77.83;98428.58;225162;1283;22551;-74
2023/06/17 00:46:31;;;;;;;9.10;8.30;;;;;;;12.91;77.93;98423.26;225169;1283;22746;-73
2023/06/17 00:51:48;;;;;;;9.70;8.80;;;;;;;12.86;78.35;98422.48;225195;1283;24259;-73
2023/06/17 00:57:20;;;;;;;9.40;8.30;;;;;;;12.82;78.45;98419.67;225620;1278;22575;-73
2023/06/17 01:02:25;;;;;;;9.90;9.00;;;;;;;12.79;78.64;98426.45;226140;1278;22992;-72
2023/06/17 01:07:58;;;;;;;11.00;8.80;;;;;;;12.75;78.69;98428.65;226150;1277;22533;-72
2023/06/17 01:13:03;;;;;;;9.30;8.40;;;;;;;12.70;78.68;98430.66;226239;1274;22548;-73
2023/06/17 01:18:17;;;;;;;10.30;9.30;;;;;;;12.65;78.89;98426.75;226141;1274;22552;-72
2023/06/17 01:23:53;;;;;;;10.80;9.80;;;;;;;12.59;79.30;98429.48;226168;1278;22564;-73
2023/06/17 01:28:59;;;;;;;10.80;9.20;;;;;;;12.53;79.21;98429.98;226166;1278;22608;-72
2023/06/17 01:34:59;;;;;;;10.60;9.20;;;;;;;12.46;79.42;98430.82;226138;1278;23009;-73
2023/06/17 01:40:07;;;;;;;9.90;8.70;;;;;;;12.35;79.38;98434.23;226252;1277;22547;-72
2023/06/17 01:45:36;;;;;;;10.40;9.30;;;;;;;12.23;79.56;98438.98;226153;1271;22545;-73
2023/06/17 01:51:20;;;;;;;;;;;;;;;;;;;;;
2023/06/17 01:56:57;;;;;;;10.30;9.30;;;;;;;12.00;80.01;98432.30;226145;1278;24428;-72
2023/06/17 02:02:01;;;;;;;10.20;9.20;;;;;;;11.92;80.23;98432.22;226184;1276;22541;-73
2023/06/17 02:07:40;;;;;;;10.00;9.10;;;;;;;11.86;80.40;98426.94;225618;1277;25392;-72
2023/06/17 02:12:44;;;;;;;10.80;9.70;;;;;;;11.80;80.62;98435.69;225702;1265;25089;-72
2023/06/17 02:17:46;;;;;;;11.60;10.40;;;;;;;11.74;80.66;98441.45;225578;1280;22539;-73
2023/06/17 02:22:54;;;;;;;12.50;10.10;;;;;;;11.68;80.86;98440.80;225634;1279;22564;-73
2023/06/17 02:28:03;;;;;;;12.80;11.50;;;;;;;11.59;80.92;98443.11;225649;1278;22557;-73
2023/06/17 02:33:25;;;;;;;12.90;11.50;;;;;;;11.50;81.18;98456.21;225958;1278;25447;-73
2023/06/17 02:38:38;;;;;;;15.10;12.50;;;;;;;11.46;81.41;98459.86;226172;1274;23001;-73
2023/06/17 02:43:41;;;;;;;16.20;13.10;;;;;;;11.50;81.81;98466.30;226197;1278;22551;-73
2023/06/17 02:48:43;;;;;;;16.20;13.20;;;;;;;11.57;82.08;98464.97;226161;1277;22549;-75
2023/06/17 02:54:01;;;;;;;15.00;12.80;;;;;;;11.67;82.25;98463.52;226228;1274;22548;-79
2023/06/17 02:59:03;;;;;;;14.30;12.80;;;;;;;11.76;82.20;98465.96;226176;1274;25409;-80
2023/06/17 03:04:20;;;;;;;;;;;;;;;;;;;;;
2023/06/17 03:09:23;;;;;;;16.70;13.50;;;;;;;11.97;82.43;98457.36;226210;1274;23225;-78
2023/06/17 03:14:28;;;;;;;15.60;14.00;;;;;;;12.09;82.60;98455.88;226219;1275;22545;-79
2023/06/17 03:19:33;;;;;;;18.10;13.80;;;;;;;12.22;82.76;98453.49;226216;1274;22559;-80
2023/06/17 03:24:35;;;;;;;17.20;14.30;;;;;;;12.33;82.88;98455.10;226161;1275;22539;-79
2023/06/17 03:29:38;;;;;;;15.70;14.10;;;;;;;12.44;82.84;98456.31;226185;1274;22563;-78
2023/06/17 03:34:42;;;;;;;15.30;13.80;;;;;;;12.53;82.82;98454.89;226265;1275;22540;-79
2023/06/17 03:40:06;;;;;;;15.60;12.90;;;;;;;12.65;82.84;98461.14;226217;1272;25343;-79
2023/06/17 03:45:22;;;;;;;15.70;14.00;;;;;;;12.80;82.81;98464.14;226183;1278;24262;-80
2023/06/17 03:50:31;;;;;;;15.50;13.80;;;;;;;12.91;82.87;98465.20;226169;1274;22538;-78
2023/06/17 03:55:41;;;;;;;15.30;13.80;;;;;;;12.99;82.76;98467.25;226204;1275;22578;-78
2023/06/17 04:00:53;;;;;;;15.90;14.30;;;;;;;13.10;82.83;98462.75;226155;1278;22560;-79
2023/06/17 04:06:09;;;;;;;16.90;14.50;;;;;;;13.23;82.92;98459.60;226149;1275;22545;-79
2023/06/17 04:11:17;;;;;;;17.20;14.10;;;;;;;13.37;82.82;98457.61;226233;1275;22546;-78
2023/06/17 04:16:23;;;;;;;15.40;13.80;;;;;;;13.52;82.54;98456.41;226227;1275;24239;-79
2023/06/17 04:21:26;;;;;;;14.90;13.50;;;;;;;13.70;82.26;98453.46;226240;1274;22555;-78
2023/06/17 04:26:44;;;;;;;15.40;13.90;;;;;;;13.83;81.90;98458.01;226022;1278;22552;-79
2023/06/17 04:31:49;;;;;;;15.20;13.60;;;;;;;13.98;81.62;98455.03;226161;1277;22534;-77
2023/06/17 04:36:57;;;;;;;16.50;13.80;;;;;;;14.09;81.48;98459.55;226136;1277;22540;-79
2023/06/17 04:42:02;;;;;;;16.70;14.10;;;;;;;14.16;81.30;98457.20;226144;1274;22590;-79
2023/06/17 04:47:09;;;;;;;16.60;14.90;;;;;;;14.22;81.18;98466.95;226254;1274;22552;-79
2023/06/17 04:52:19;;;;;;;14.00;12.60;;;;;;;14.35;81.47;98472.52;226248;1274;22555;-78
2023/06/17 04:57:27;;;;;;;16.90;12.60;;;;;;;14.47;81.02;98475.41;226248;1278;22530;-79
2023/06/17 05:02:38;;;;;;;13.60;12.20;;;;;;;14.52;80.64;98480.92;226260;1272;22532;-79
2023/06/17 05:07:44;;;;;;;14.60;13.20;;;;;;;14.62;80.56;98483.80;226288;1274;25565;-79
2023/06/17 05:12:48;;;;;;;15.00;13.60;;;;;;;14.77;80.45;98482.40;226224;1278;22540;-79
2023/06/17 05:18:13;;;;;;;15.80;14.30;;;;;;;14.88;80.18;98490.61;226286;1278;22552;-79
2023/06/17 05:23:41;;;;;;;16.80;15.00;;;;;;;14.91;80.17;98484.48;226310;1278;24474;-79
2023/06/17 05:28:46;;;;;;;18.10;15.70;;;;;;;14.93;79.79;98489.66;226008;1277;22555;-78
2023/06/17 05:33:49;;;;;;;17.50;15.10;;;;;;;14.96;79.94;98490.17;226221;1278;24298;-79
2023/06/17 05:38:55;;;;;;;17.70;15.80;;;;;;;14.99;79.61;98490.73;226219;1275;22532;-79
2023/06/17 05:43:58;;;;;;;17.60;15.90;;;;;;;14.93;79.63;98492.05;226228;1276;22540;-79
2023/06/17 05:49:04;;;;;;;17.60;15.50;;;;;;;14.93;79.82;98485.63;226218;1278;22547;-79
2023/06/17 05:54:07;;;;;;;17.50;15.10;;;;;;;15.06;80.02;98483.16;226242;1278;22538;-78
2023/06/17 05:59:10;;;;;;;16.40;14.70;;;;;;;15.35;80.10;98488.15;226043;1275;22607;-79
2023/06/17 06:04:17;;;;;;;15.80;14.20;;;;;;;15.63;79.62;98494.57;226255;1278;22554;-79
2023/06/17 06:09:20;;;;;;;15.10;13.60;;;;;;;15.88;79.26;98497.27;226205;1278;24223;-79
2023/06/17 06:14:22;;;;;;;15.30;13.80;;;;;;;16.07;78.98;98504.47;226076;1275;145006;-79
2023/06/17 06:19:25;;;;;;;15.90;14.30;;;;;;;16.29;78.76;98505.41;226211;1275;22552;-79
2023/06/17 06:24:30;;;;;;;15.00;13.60;;;;;;;16.55;78.45;98504.02;226257;1278;22558;-79
2023/06/17 06:29:33;;;;;;;14.50;13.00;;;;;;;16.81;77.93;98509.59;226281;1278;22545;-78
2023/06/17 06:34:36;;;;;;;14.00;12.60;;;;;;;17.00;77.48;98512.44;226285;1275;24758;-79
2023/06/17 06:39:39;;;;;;;13.20;11.30;;;;;;;17.14;77.29;98506.91;226201;1277;22541;-80
2023/06/17 06:44:49;;;;;;;11.90;10.80;;;;;;;17.31;77.03;98509.90;226023;1260;22701;-78
2023/06/17 06:49:51;;;;;;;12.10;11.00;;;;;;;17.58;76.90;98513.04;226208;1273;22559;-79
2023/06/17 06:54:54;;;;;;;11.80;10.60;;;;;;;17.89;75.98;98515.38;226206;1270;22589;-80
2023/06/17 06:59:59;;;;;;;12.80;11.60;;;;;;;18.13;75.57;98516.69;225862;1278;23392;-78
2023/06/17 07:05:04;;;;;;;10.30;9.30;;;;;;;18.25;74.87;98521.90;225937;1258;22536;-78
2023/06/17 07:10:14;;;;;;;12.00;10.90;;;;;;;18.44;74.77;98522.93;225871;1270;22550;-79
2023/06/17 07:15:34;;;;;;;9.40;8.60;;;;;;;18.70;74.88;98526.71;225899;1277;22546;-78
2023/06/17 07:21:07;;;;;;;17.90;15.90;;;;;;;18.98;74.07;98521.31;225824;1275;25390;-78
2023/06/17 07:26:13;;;;;;;9.30;8.50;;;;;;;19.29;73.81;98516.16;225933;1278;22555;-78
2023/06/17 07:31:16;;;;;;;8.90;8.10;;;;;;;19.36;72.27;98518.45;225851;1277;23001;-79
2023/06/17 07:36:19;;;;;;;9.30;8.40;;;;;;;19.37;72.40;98514.45;225909;1273;22524;-78
2023/06/17 07:41:30;;;;;;;8.60;7.70;;;;;;;19.58;71.95;98509.65;225747;1256;22547;-76
2023/06/17 07:46:33;;;;;;;7.80;7.00;;;;;;;19.84;71.66;98508.67;225901;1273;24398;-79
2023/06/17 07:51:37;;;;;;;7.50;6.80;;;;;;;20.22;71.29;98503.85;225748;1269;22562;-79
2023/06/17 07:56:39;;;;;;;6.90;6.30;;;;;;;20.67;70.82;98501.48;225821;1258;22954;-79
2023/06/17 08:01:43;;;;;;;6.80;6.10;;;;;;;21.07;69.52;98496.27;225960;1273;22549;-79
2023/06/17 08:06:46;;;;;;;6.90;6.30;;;;;;;21.38;68.77;98492.73;225808;1257;25332;-79
2023/06/17 08:11:50;;;;;;;6.90;6.30;;;;;;;21.51;67.95;98499.05;225830;1274;22555;-79
2023/06/17 08:16:53;;;;;;;6.80;6.20;;;;;;;21.67;67.88;98492.09;225673;1254;22543;-78
2023/06/17 08:22:04;;;;;;;6.70;5.70;;;;;;;22.08;67.21;98495.86;225947;1278;25436;-78
2023/06/17 08:27:18;;;;;;;6.20;5.70;;;;;;;22.19;65.63;98493.81;226030;1275;22587;-78
2023/06/17 08:32:34;;;;;;;6.50;5.90;;;;;;;22.06;65.20;98492.00;225733;1267;22543;-78
2023/06/17 08:37:39;;;;;;;;;;;;;;;22.47;65.61;98486.95;225669;1278;25859;-79
2023/06/17 08:42:42;;;;;;;6.20;5.60;;;;;;;22.60;63.64;98490.53;226140;1263;22540;-79
2023/06/17 08:47:57;;;;;;;6.40;5.70;;;;;;;22.35;63.46;98491.81;225980;1276;22532;-79
2023/06/17 08:53:03;;;;;;;6.40;5.90;;;;;;;21.97;63.64;98494.81;225908;1276;24029;-79
2023/06/17 08:58:15;;;;;;;7.40;6.70;;;;;;;21.52;64.28;98498.30;225826;1260;22544;-78
2023/06/17 09:03:20;;;;;;;6.90;6.30;;;;;;;21.19;64.95;98496.95;226028;1276;22598;-77
2023/06/17 09:08:24;;;;;;;6.90;6.20;;;;;;;20.94;65.10;98500.55;225741;1277;22549;-78
2023/06/17 09:13:27;;;;;;;6.70;5.90;;;;;;;20.73;65.34;98502.23;225735;1274;22549;-78
2023/06/17 09:18:33;;;;;;;6.80;6.20;;;;;;;20.66;65.44;98493.42;225877;1275;22557;-78
2023/06/17 09:23:38;;;;;;;8.30;7.60;;;;;;;20.67;65.53;98490.75;225891;1278;22563;-76
2023/06/17 09:28:44;;;;;;;9.90;8.50;;;;;;;20.80;65.39;98484.84;225995;1255;22549;-77
2023/06/17 09:33:46;;;;;;;10.30;9.40;;;;;;;21.07;65.59;98479.60;226015;1273;22632;-78
2023/06/17 09:38:52;;;;;;;13.00;12.00;;;;;;;21.62;65.00;98473.90;225847;1276;22547;-78
2023/06/17 09:44:03;;;;;;;11.30;10.40;;;;;;;22.13;63.87;98477.77;225740;1273;22603;-78
2023/06/17 09:49:12;;;;;;;9.40;8.60;;;;;;;22.23;62.29;98479.08;225917;1270;24228;-79
2023/06/17 09:54:15;;;;;;;10.50;9.70;;;;;;;22.17;61.80;98473.09;225830;1271;25276;-78
2023/06/17 09:59:21;;;;;;;11.20;10.20;;;;;;;22.16;61.48;98471.37;225816;1256;22529;-77
2023/06/17 10:04:23;;;;;;;12.70;11.70;;;;;;;22.21;61.63;98471.59;225710;1266;24281;-78
2023/06/17 10:09:26;;;;;;;15.20;13.90;;;;;;;22.30;61.30;98469.63;225727;1260;23333;-78
2023/06/17 10:14:32;;;;;;;14.20;13.00;;;;;;;22.71;61.35;98467.08;225665;1274;22574;-78
2023/06/17 10:19:39;;;;;;;14.00;12.80;;;;;;;23.25;60.80;98456.62;225796;1278;22606;-77
2023/06/17 10:24:42;;;;;;;11.50;10.50;;;;;;;23.71;59.20;98451.83;225706;1276;23585;-77
2023/06/17 10:29:48;;;;;;;11.60;10.50;;;;;;;24.00;58.34;98449.00;225889;1278;22567;-78
2023/06/17 10:35:06;;;;;;;10.40;9.40;;;;;;;24.25;57.79;98455.98;226056;1267;25336;-76
2023/06/17 10:40:30;;;;;;;11.20;10.20;;;;;;;24.52;57.44;98448.91;226027;1271;22547;-76
2023/06/17 10:45:48;;;;;;;8.20;7.60;;;;;;;24.67;56.36;98444.04;225954;1272;22551;-76
2023/06/17 10:50:52;;;;;;;5.60;5.20;;;;;;;24.76;55.64;98448.22;225893;1271;22542;-76
2023/06/17 10:55:56;;;;;;;6.60;6.00;;;;;;;24.74;54.58;98449.05;225827;1277;22555;-76
2023/06/17 11:01:03;;;;;;;5.80;5.00;;;;;;;24.65;54.33;98450.98;226031;1272;22551;-74
2023/06/17 11:06:06;;;;;;;7.50;6.90;;;;;;;24.35;54.44;98452.98;225970;1271;22567;-74
2023/06/17 11:11:11;;;;;;;7.60;7.00;;;;;;;24.17;55.26;98454.02;226108;1271;24382;-75
2023/06/17 11:16:13;;;;;;;6.80;6.10;;;;;;;23.94;55.50;98457.58;226224;1269;22552;-75
2023/06/17 11:21:15;;;;;;;5.70;5.10;;;;;;;23.69;55.85;98452.33;226193;1275;22536;-74
2023/06/17 11:26:18;;;;;;;5.40;4.90;;;;;;;23.60;55.93;98454.44;226042;1273;22568;-74
2023/06/17 11:31:25;;;;;;;5.10;4.70;;;;;;;23.66;56.08;98451.59;226180;1275;22537;-75
2023/06/17 11:36:28;;;;;;;6.40;5.90;;;;;;;23.84;54.95;98451.41;225999;1277;22544;-75
2023/06/17 11:41:31;;;;;;;7.40;6.80;;;;;;;23.93;54.51;98445.81;226244;1276;22593;-75
2023/06/17 11:46:39;;;;;;;7.50;6.90;;;;;;;24.13;54.59;98440.77;226194;1271;22532;-76
2023/06/17 11:51:51;;;;;;;4.80;4.40;;;;;;;24.19;53.91;98437.21;226159;1275;22955;-75
2023/06/17 11:56:54;;;;;;;5.00;4.50;;;;;;;24.24;53.93;98427.80;226039;1276;22551;-76
2023/06/17 12:01:56;;;;;;;4.20;3.80;;;;;;;24.30;53.15;98425.86;226211;1278;22546;-75
2023/06/17 12:06:58;;;;;;;4.40;4.10;;;;;;;24.35;53.47;98425.16;226046;1274;22551;-74
2023/06/17 12:12:01;;;;;;;4.40;4.00;;;;;;;24.55;53.52;98421.15;226145;1271;22650;-75
2023/06/17 12:17:04;;;;;;;5.30;3.90;;;;;;;24.68;53.08;98424.95;226219;1276;22541;-75
2023/06/17 12:22:11;;;;;;;4.20;3.80;;;;;;;24.64;52.39;98421.32;226276;1275;22532;-74
2023/06/17 12:27:13;;;;;;;4.90;4.50;;;;;;;24.52;52.01;98418.11;226266;1270;22543;-75
2023/06/17 12:32:15;;;;;;;4.10;3.90;;;;;;;24.34;52.11;98421.11;226156;1271;22536;-75
2023/06/17 12:37:23;;;;;;;4.30;3.90;;;;;;;24.18;52.83;98418.44;226182;1273;22613;-74
2023/06/17 12:42:25;;;;;;;4.50;3.70;;;;;;;24.18;52.57;98415.41;226188;1271;22676;-75
2023/06/17 12:47:27;;;;;;;4.50;4.20;;;;;;;24.07;51.94;98405.63;226184;1275;22557;-75
2023/06/17 12:52:29;;;;;;;4.40;4.00;;;;;;;24.09;52.60;98405.88;226166;1275;22543;-75
2023/06/17 12:57:31;;;;;;;5.30;4.80;;;;;;;24.18;52.95;98403.55;226126;1275;22633;-75
2023/06/17 13:02:35;;;;;;;6.00;5.50;;;;;;;24.21;52.89;98396.52;226029;1273;22544;-75
2023/06/17 13:07:41;;;;;;;5.40;5.00;;;;;;;24.19;52.81;98401.25;226194;1274;22545;-75
2023/06/17 13:12:43;;;;;;;5.50;5.10;;;;;;;24.03;52.68;98395.69;226039;1276;22543;-75
2023/06/17 13:17:45;;;;;;;5.90;5.30;;;;;;;23.92;53.19;98388.55;226215;1275;22629;-75
2023/06/17 13:22:47;;;;;;;5.80;5.30;;;;;;;23.93;53.37;98388.82;226027;1270;22573;-75
2023/06/17 13:27:50;;;;;;;6.00;5.20;;;;;;;23.81;53.13;98393.14;226189;1271;23173;-74
2023/06/17 13:32:52;;;;;;;5.40;5.00;;;;;;;23.52;53.39;98395.52;226209;1274;23086;-76
2023/06/17 13:37:57;;;;;;;5.30;4.50;;;;;;;23.26;53.84;98392.40;226169;1276;23663;-75
2023/06/17 13:42:59;;;;;;;4.90;4.50;;;;;;;23.17;53.76;98388.51;225936;1274;22543;-75
2023/06/17 13:48:05;;;;;;;4.80;4.50;;;;;;;23.22;53.76;98385.79;226125;1272;25362;-75
2023/06/17 13:53:08;;;;;;;5.20;4.80;;;;;;;23.42;53.74;98382.04;226122;1275;22566;-79
2023/06/17 13:58:10;;;;;;;6.40;5.90;;;;;;;23.42;54.15;98388.23;225909;1279;22600;-75
2023/06/17 14:03:12;;;;;;;6.10;5.50;;;;;;;23.26;55.14;98390.62;226007;1277;22566;-74
2023/06/17 14:08:18;;;;;;;5.30;4.90;;;;;;;23.00;55.71;98387.92;226070;1276;22546;-74
2023/06/17 14:13:24;;;;;;;4.90;4.40;;;;;;;22.74;56.33;98398.54;226219;1272;22544;-75
2023/06/17 14:18:26;;;;;;;5.50;5.00;;;;;;;22.50;56.76;98400.55;226165;1277;23076;-75
2023/06/17 14:23:28;;;;;;;5.30;4.80;;;;;;;22.38;57.49;98402.76;226158;1256;22540;-71
2023/06/17 14:28:31;;;;;;;5.10;4.60;;;;;;;22.35;57.71;98403.24;226160;1276;22718;-70
2023/06/17 14:33:35;;;;;;;4.80;4.40;;;;;;;22.34;57.79;98404.64;226113;1275;22559;-70
2023/06/17 14:38:36;;;;;;;4.80;4.40;;;;;;;22.36;57.96;98404.22;226188;1274;22548;-71
2023/06/17 14:43:39;;;;;;;4.70;4.30;;;;;;;22.45;58.11;98404.51;226161;1274;22531;-70
2023/06/17 14:48:41;;;;;;;4.50;4.20;;;;;;;22.63;57.81;98409.77;226286;1273;22587;-69
2023/06/17 14:53:44;;;;;;;4.70;4.30;;;;;;;22.72;57.50;98410.91;226174;1263;22548;-70
2023/06/17 14:58:46;;;;;;;5.00;4.60;;;;;;;22.71;57.40;98412.12;226126;1278;22557;-70
2023/06/17 15:03:48;;;;;;;4.20;3.80;;;;;;;22.61;57.32;98404.61;226188;1274;25284;-68
2023/06/17 15:09:32;;;;;;;4.20;3.90;;;;;;;22.57;57.50;98404.02;226004;1276;22550;-68
2023/06/17 15:14:36;;;;;;;4.00;3.70;;;;;;;22.57;57.29;98398.41;226095;1278;22558;-70
2023/06/17 15:19:39;;;;;;;4.40;4.00;;;;;;;22.58;57.09;98400.79;226062;1271;22531;-69
2023/06/17 15:24:42;;;;;;;4.80;4.40;;;;;;;22.63;57.13;98397.27;226045;1274;22565;-70
2023/06/17 15:29:43;;;;;;;4.40;3.90;;;;;;;22.65;56.70;98400.50;226109;1278;23017;-69
2023/06/17 15:34:46;;;;;;;4.20;3.80;;;;;;;22.79;56.70;98401.96;226118;1275;22582;-69
2023/06/17 15:39:47;;;;;;;4.60;4.30;;;;;;;23.01;56.43;98399.88;226144;1270;22604;-71
2023/06/17 15:44:49;;;;;;;4.70;4.20;;;;;;;23.22;56.17;98397.01;226072;1274;24225;-69
2023/06/17 15:49:52;;;;;;;4.20;3.80;;;;;;;23.51;56.00;98389.44;226125;1278;22569;-69
2023/06/17 15:55:00;;;;;;;4.10;3.80;;;;;;;23.79;55.43;98387.65;226022;1277;22543;-69
2023/06/17 16:00:03;;;;;;;4.70;4.40;;;;;;;23.99;54.86;98383.59;226074;1278;22674;-69
2023/06/17 16:05:13;;;;;;;5.60;5.20;;;;;;;24.10;54.56;98381.80;226027;1277;22554;-70
2023/06/17 16:10:16;;;;;;;5.50;5.00;;;;;;;24.09;54.66;98380.19;226086;1275;22539;-69
2023/06/17 16:15:18;;;;;;;5.00;4.60;;;;;;;24.04;54.25;98383.38;226151;1276;24303;-69
2023/06/17 16:20:20;;;;;;;4.10;3.80;;;;;;;23.75;53.66;98382.67;226096;1272;22561;-69
2023/06/17 16:25:23;;;;;;;4.00;3.70;;;;;;;23.56;53.03;98384.61;225766;1279;22683;-68
2023/06/17 16:30:25;;;;;;;4.00;3.70;;;;;;;23.41;52.26;98379.77;226022;1274;22524;-69
2023/06/17 16:35:29;;;;;;;3.50;3.30;;;;;;;23.23;52.02;98383.64;226035;1278;22537;-70
2023/06/17 16:40:31;;;;;;;3.40;3.20;;;;;;;23.19;51.88;98382.36;226061;1278;25339;-69
2023/06/17 16:45:34;;;;;;;3.90;3.60;;;;;;;23.23;52.08;98386.76;226064;1274;22550;-68
2023/06/17 16:50:36;;;;;;;3.80;3.50;;;;;;;23.32;52.60;98383.35;226158;1275;22544;-70
2023/06/17 16:55:38;;;;;;;4.00;3.70;;;;;;;23.39;52.60;98384.33;226027;1278;22602;-70
2023/06/17 17:00:40;;;;;;;4.00;3.70;;;;;;;23.42;52.17;98386.42;225992;1274;22533;-69
2023/06/17 17:05:43;;;;;;;5.90;5.40;;;;;;;23.44;52.58;98387.85;226105;1274;22950;-69
2023/06/17 17:10:45;;;;;;;4.40;4.10;;;;;;;23.85;52.71;98396.38;226096;1272;25513;-69
2023/06/17 17:15:47;;;;;;;3.60;3.40;;;;;;;25.13;52.55;98400.30;226081;1274;22584;-70
2023/06/17 17:20:49;;;;;;;4.80;3.80;;;;;;;26.50;51.35;98410.80;226057;1274;22547;-68
2023/06/17 17:25:51;;;;;;;3.90;3.60;;;;;;;27.73;49.72;98415.33;226071;1267;22601;-69
2023/06/17 17:30:53;;;;;;;3.70;3.40;;;;;;;28.62;47.90;98419.63;226022;1265;23690;-71
2023/06/17 17:35:55;;;;;;;3.90;3.50;;;;;;;29.31;46.71;98417.39;226079;1271;22538;-69
2023/06/17 17:40:57;;;;;;;3.50;3.30;;;;;;;29.54;45.88;98418.86;226042;1278;22542;-70
2023/06/17 17:46:01;;;;;;;3.90;3.70;;;;;;;29.64;45.68;98426.93;226012;1274;22547;-70
2023/06/17 17:51:03;;;;;;;3.90;3.70;;;;;;;29.81;44.99;98428.13;226063;1272;22543;-71
2023/06/17 17:56:05;;;;;;;27.40;24.80;;;;;;;29.02;44.87;98428.20;226066;1275;22536;-71
2023/06/17 18:01:07;;;;;;;4.90;4.50;;;;;;;27.86;45.30;98428.58;225977;1275;22528;-71
2023/06/17 18:06:12;;;;;;;4.90;4.50;;;;;;;26.74;46.04;98428.40;226128;1274;22544;-70
2023/06/17 18:11:14;;;;;;;5.00;4.60;;;;;;;25.74;47.05;98434.75;226123;1267;22564;-70
2023/06/17 18:16:17;;;;;;;5.70;5.10;;;;;;;24.94;47.97;98434.85;225926;1274;181214;-71
2023/06/17 18:21:19;;;;;;;5.70;5.20;;;;;;;24.22;48.98;98438.81;226002;1277;25357;-70
2023/06/17 18:26:21;;;;;;;5.30;4.80;;;;;;;23.55;49.77;98440.59;226111;1278;22539;-68
2023/06/17 18:31:23;;;;;;;5.90;5.40;;;;;;;22.91;51.04;98450.79;226110;1274;22565;-69
2023/06/17 18:36:25;;;;;;;6.60;5.40;;;;;;;22.39;51.94;98454.76;226028;1274;22667;-69
2023/06/17 18:41:27;;;;;;;5.00;4.60;;;;;;;21.93;52.74;98459.37;226004;1277;22539;-69
2023/06/17 18:46:31;;;;;;;12.30;11.00;;;;;;;21.42;53.44;98464.19;226039;1275;22568;-69
2023/06/17 18:51:33;;;;;;;5.40;4.80;;;;;;;20.97;54.37;98467.52;226082;1278;25391;-69
2023/06/17 18:56:36;;;;;;;5.60;4.30;;;;;;;20.61;55.25;98470.48;226089;1278;24264;-69
2023/06/17 19:01:38;;;;;;;4.90;4.30;;;;;;;20.27;56.01;98475.17;225807;1278;22547;-68
2023/06/17 19:06:41;;;;;;;5.60;5.10;;;;;;;19.96;56.76;98478.30;226028;1274;24283;-69
2023/06/17 19:11:43;;;;;;;5.40;4.60;;;;;;;19.67;57.43;98477.69;225782;1274;22544;-69
2023/06/17 19:16:47;;;;;;;4.90;4.40;;;;;;;19.40;58.13;98484.04;226007;1272;22530;-70
2023/06/17 19:21:49;;;;;;;4.90;4.40;;;;;;;19.11;58.86;98489.00;226030;1274;22550;-68
2023/06/17 19:26:51;;;;;;;7.80;6.90;;;;;;;18.86;59.51;98496.79;226005;1275;22549;-69
2023/06/17 19:31:55;;;;;;;6.70;6.00;;;;;;;18.62;60.21;98503.41;226077;1268;22611;-68
2023/06/17 19:36:57;;;;;;;5.40;4.90;;;;;;;18.38;60.87;98508.29;225988;1274;22554;-68
2023/06/17 19:41:59;;;;;;;6.90;5.80;;;;;;;18.16;61.39;98509.92;225918;1277;22649;-69
2023/06/17 19:47:01;;;;;;;5.90;5.30;;;;;;;17.95;61.77;98508.25;226061;1275;25335;-69
2023/06/17 19:52:03;;;;;;;20.30;18.20;;;;;;;17.75;62.34;98512.56;225979;1274;22607;-69
2023/06/17 19:57:06;;;;;;;9.40;8.20;;;;;;;17.56;62.87;98516.10;226038;1271;22551;-70
2023/06/17 20:02:12;;;;;;;7.10;6.20;;;;;;;17.39;62.93;98521.92;226051;1278;22572;-70
2023/06/17 20:07:14;;;;;;;8.30;5.80;;;;;;;17.25;63.80;98524.38;225972;1275;22550;-68
2023/06/17 20:12:16;;;;;;;7.80;6.40;;;;;;;17.10;64.07;98529.52;225985;1268;22534;-70
2023/06/17 20:17:18;;;;;;;8.20;6.90;;;;;;;16.98;64.58;98529.42;225966;1274;24269;-70
2023/06/17 20:22:20;;;;;;;29.90;21.10;;;;;;;16.88;64.89;98532.95;225944;1272;22573;-68
2023/06/17 20:27:21;;;;;;;23.40;16.30;;;;;;;16.77;65.29;98532.34;225927;1276;22542;-71
2023/06/17 20:32:23;;;;;;;12.00;10.30;;;;;;;16.65;65.70;98532.70;225954;1274;22615;-69
2023/06/17 20:37:29;;;;;;;13.40;9.60;;;;;;;16.52;66.26;98532.17;225990;1274;22579;-69
2023/06/17 20:42:31;;;;;;;12.10;9.20;;;;;;;16.39;66.68;98537.20;225940;1267;25313;-70
2023/06/17 20:47:33;;;;;;;11.70;9.60;;;;;;;16.27;66.80;98533.42;225765;1279;22556;-70
2023/06/17 20:52:35;;;;;;;11.10;9.10;;;;;;;16.17;67.46;98535.73;225730;1260;22573;-70
2023/06/17 20:57:39;;;;;;;12.60;9.80;;;;;;;16.06;67.46;98532.95;225970;1256;25409;-71
2023/06/17 21:02:41;;;;;;;10.60;9.20;;;;;;;15.96;67.80;98537.48;226040;1277;22554;-69
2023/06/17 21:07:43;;;;;;;10.10;9.10;;;;;;;15.83;68.02;98545.80;226049;1274;24641;-71
2023/06/17 21:12:46;;;;;;;15.40;13.80;;;;;;;15.72;68.74;98546.36;226000;1261;25256;-68
2023/06/17 21:17:49;;;;;;;12.90;11.50;;;;;;;15.60;68.84;98543.14;226039;1278;22558;-69
2023/06/17 21:22:51;;;;;;;11.00;9.60;;;;;;;15.50;69.40;98541.98;225981;1272;22720;-69
2023/06/17 21:27:53;;;;;;;10.20;8.90;;;;;;;15.41;69.89;98547.79;226037;1274;22560;-69
2023/06/17 21:32:55;;;;;;;9.30;8.40;;;;;;;15.31;70.07;98548.90;225997;1273;22534;-70
2023/06/17 21:37:58;;;;;;;10.50;9.50;;;;;;;15.20;70.26;98547.06;225952;1277;22551;-68
2023/06/17 21:43:00;;;;;;;8.60;7.70;;;;;;;15.09;70.75;98546.31;226026;1274;22551;-69
2023/06/17 21:48:02;;;;;;;8.50;7.70;;;;;;;15.00;71.12;98543.16;226028;1277;22530;-68
2023/06/17 21:53:08;;;;;;;8.10;7.40;;;;;;;14.92;71.62;98546.73;226011;1278;22555;-69
2023/06/17 21:58:12;;;;;;;8.50;7.60;;;;;;;14.86;71.87;98545.69;226016;1278;25368;-69
2023/06/17 22:03:18;;;;;;;8.40;7.60;;;;;;;14.76;72.22;98551.52;226037;1274;22538;-69
2023/06/17 22:08:24;;;;;;;9.00;8.10;;;;;;;14.65;72.42;98562.15;226061;1277;22536;-68
2023/06/17 22:13:44;;;;;;;9.60;8.60;;;;;;;14.56;72.81;98555.57;226070;1278;22543;-68
2023/06/17 22:18:48;;;;;;;9.80;8.60;;;;;;;14.49;73.10;98561.61;226083;1278;22548;-68
2023/06/17 22:23:51;;;;;;;10.00;9.00;;;;;;;14.42;73.06;98565.83;226009;1275;24010;-68
2023/06/17 22:28:53;;;;;;;9.50;8.60;;;;;;;14.35;73.61;98565.95;226044;1276;22566;-68
2023/06/17 22:33:56;;;;;;;10.20;9.20;;;;;;;14.27;73.92;98570.62;226068;1278;22539;-69
2023/06/17 22:38:57;;;;;;;10.80;9.40;;;;;;;14.17;74.03;98572.59;226051;1277;23667;-69
2023/06/17 22:43:59;;;;;;;10.40;9.30;;;;;;;14.06;74.26;98564.83;226063;1278;22549;-69
2023/06/17 22:49:07;;;;;;;10.50;9.40;;;;;;;13.97;74.52;98567.53;226055;1277;22543;-69
2023/06/17 22:54:09;;;;;;;11.70;10.40;;;;;;;13.89;74.88;98564.08;226055;1275;26218;-69
2023/06/17 22:59:11;;;;;;;11.60;10.30;;;;;;;13.82;75.18;98565.09;226017;1277;24272;-68
2023/06/17 23:04:13;;;;;;;11.90;10.70;;;;;;;13.74;75.51;98565.08;226019;1268;22646;-68
2023/06/17 23:09:16;;;;;;;12.00;10.80;;;;;;;13.70;75.59;98566.07;226121;1272;22559;-70
2023/06/17 23:14:24;;;;;;;11.60;10.50;;;;;;;13.69;76.15;98568.08;226100;1278;22545;-68
2023/06/17 23:19:26;;;;;;;11.90;9.90;;;;;;;13.71;76.33;98561.70;226038;1278;22608;-70
2023/06/17 23:24:28;;;;;;;12.20;11.00;;;;;;;13.70;76.57;98555.37;226062;1278;22539;-68
2023/06/17 23:29:30;;;;;;;11.00;9.90;;;;;;;13.68;76.57;98554.97;226061;1275;22649;-68
2023/06/17 23:34:33;;;;;;;12.10;10.80;;;;;;;13.65;76.78;98553.36;226072;1277;22560;-69
2023/06/17 23:39:35;;;;;;;12.00;10.70;;;;;;;13.60;76.96;98556.09;226080;1273;22540;-69